Time;durP1;ratioP1;P1;durP2;ratioP2;P2;SDS_P1;SDS_P2;PMS_P1;PMS_P2;Temp;Humidity;BMP_temperature;BMP_pressure;BME280_temperature;BME280_humidity;BME280_pressure;Samples;Min_cycle;Max_cycle;Signal;HPM_P1;HPM_P2
2022/01/10 00:00:19;;;;;;;13.23;3.27;;;8.20;99.90;;;;;;5014769;28;20218;-77
2022/01/10 00:02:48;;;;;;;16.63;4.47;;;8.20;99.90;;;;;;5018947;28;20212;-78
2022/01/10 00:05:15;;;;;;;14.43;3.73;;;8.20;99.90;;;;;;5005685;28;20220;-79
2022/01/10 00:07:42;;;;;;;11.47;3.80;;;8.10;99.90;;;;;;5022533;28;20235;-79
2022/01/10 00:10:10;;;;;;;16.50;3.30;;;8.10;99.90;;;;;;5018122;28;20213;-79
2022/01/10 00:12:38;;;;;;;13.27;3.77;;;8.10;99.90;;;;;;5024967;28;20232;-79
2022/01/10 00:15:07;;;;;;;13.83;3.70;;;8.10;99.90;;;;;;5001942;28;20315;-78
2022/01/10 00:17:36;;;;;;;12.73;3.63;;;8.10;99.90;;;;;;5016136;28;20328;-78
2022/01/10 00:20:04;;;;;;;13.93;4.37;;;8.00;99.90;;;;;;5015299;28;20231;-78
2022/01/10 00:22:31;;;;;;;11.60;3.63;;;8.00;99.90;;;;;;5004344;28;20231;-78
2022/01/10 00:24:58;;;;;;;9.97;3.27;;;8.00;99.90;;;;;;5015109;28;20229;-79
2022/01/10 00:27:25;;;;;;;14.30;3.47;;;7.90;99.90;;;;;;5025178;28;20217;-79
2022/01/10 00:29:53;;;;;;;12.43;3.97;;;7.90;99.90;;;;;;5016042;28;20308;-79
2022/01/10 00:32:20;;;;;;;15.73;3.33;;;7.90;99.90;;;;;;4996202;28;20231;-79
2022/01/10 00:34:46;;;;;;;12.63;3.60;;;7.80;99.90;;;;;;5004781;28;20728;-78
2022/01/10 00:37:13;;;;;;;13.47;3.60;;;7.80;99.90;;;;;;5001831;28;20235;-79
2022/01/10 00:39:40;;;;;;;9.03;3.10;;;7.80;99.90;;;;;;4998652;28;20228;-79
2022/01/10 00:42:07;;;;;;;15.53;3.70;;;7.80;99.90;;;;;;4998046;28;20890;-78
2022/01/10 00:44:38;;;;;;;11.53;3.73;;;7.80;99.90;;;;;;5021191;28;20221;-79
2022/01/10 00:47:06;;;;;;;16.87;4.70;;;7.80;99.90;;;;;;5013382;28;20274;-79
2022/01/10 00:49:33;;;;;;;12.03;3.57;;;7.70;99.90;;;;;;5013304;28;20714;-78
2022/01/10 00:52:00;;;;;;;23.43;4.23;;;7.70;99.90;;;;;;5003319;28;20239;-79
2022/01/10 00:54:27;;;;;;;10.23;3.50;;;7.70;99.90;;;;;;5022976;28;20232;-79
2022/01/10 00:56:53;;;;;;;9.73;3.33;;;7.70;99.90;;;;;;5000731;28;20217;-80
2022/01/10 00:59:20;;;;;;;12.90;3.33;;;7.80;99.90;;;;;;5003896;28;20320;-79
2022/01/10 01:01:47;;;;;;;17.97;3.90;;;7.80;99.90;;;;;;4997918;28;20809;-79
2022/01/10 01:04:15;;;;;;;13.23;3.87;;;7.80;99.90;;;;;;5002640;28;20225;-78
2022/01/10 01:06:42;;;;;;;16.80;3.87;;;7.80;99.90;;;;;;5013122;28;20228;-78
2022/01/10 01:09:12;;;;;;;15.33;3.97;;;7.90;99.90;;;;;;5000105;28;20232;-79
2022/01/10 01:12:08;;;;;;;14.70;3.83;;;7.90;99.90;;;;;;5000718;28;20248;-78
2022/01/10 01:14:51;;;;;;;16.53;4.37;;;7.90;99.90;;;;;;4999711;28;20785;-78
2022/01/10 01:17:34;;;;;;;13.30;3.60;;;7.90;99.90;;;;;;5004667;28;20303;-78
2022/01/10 01:20:27;;;;;;;12.27;3.80;;;7.90;99.90;;;;;;5004169;28;20228;-78
2022/01/10 01:25:38;;;;;;;11.80;4.13;;;8.00;99.90;;;;;;4999587;28;20225;-79
2022/01/10 01:28:05;;;;;;;19.37;6.70;;;8.00;99.90;;;;;;5006369;28;20712;-79
2022/01/10 01:30:31;;;;;;;19.50;6.07;;;8.00;99.90;;;;;;5019812;28;20243;-78
2022/01/10 01:32:59;;;;;;;11.43;4.30;;;8.00;99.90;;;;;;5009119;28;20213;-78
2022/01/10 01:35:27;;;;;;;18.57;7.90;;;8.00;99.90;;;;;;5007634;28;20251;-78
2022/01/10 01:37:55;;;;;;;12.90;4.50;;;8.00;99.90;;;;;;5027901;28;20263;-79
2022/01/10 01:40:26;;;;;;;12.37;3.97;;;8.00;99.90;;;;;;5025540;28;20218;-79
2022/01/10 01:42:52;;;;;;;17.23;4.83;;;8.00;99.90;;;;;;5022548;28;20661;-79
2022/01/10 01:45:19;;;;;;;25.73;5.57;;;8.00;99.90;;;;;;5004643;28;20217;-79
2022/01/10 01:47:46;;;;;;;28.97;5.50;;;8.00;99.90;;;;;;4999257;28;20216;-79
2022/01/10 01:50:24;;;;;;;14.40;5.10;;;8.00;99.90;;;;;;5005846;28;20221;-79
2022/01/10 01:52:52;;;;;;;13.33;4.37;;;8.10;99.90;;;;;;5005220;28;21263;-79
2022/01/10 01:55:19;;;;;;;18.60;5.07;;;8.10;99.90;;;;;;5004442;28;20216;-78
2022/01/10 01:57:46;;;;;;;25.50;5.20;;;8.10;99.90;;;;;;5006590;28;20220;-79
2022/01/10 02:00:14;;;;;;;29.80;6.03;;;8.10;99.90;;;;;;4999277;28;20300;-79
2022/01/10 02:02:46;;;;;;;60.77;7.50;;;8.10;99.90;;;;;;5024861;28;20225;-80
2022/01/10 02:05:13;;;;;;;15.70;5.67;;;8.10;99.90;;;;;;5008428;28;20221;-79
2022/01/10 02:07:40;;;;;;;12.57;5.23;;;8.10;99.90;;;;;;5005043;28;20256;-80
2022/01/10 02:10:10;;;;;;;10.70;5.10;;;8.10;99.90;;;;;;5008922;28;20761;-79
2022/01/10 02:12:37;;;;;;;27.23;5.70;;;8.10;99.90;;;;;;4992113;28;20586;-80
2022/01/10 02:15:09;;;;;;;19.40;5.03;;;8.10;99.90;;;;;;5007197;28;20591;-79
2022/01/10 02:17:38;;;;;;;11.60;5.00;;;8.20;99.90;;;;;;5016071;28;20229;-80
2022/01/10 02:20:13;;;;;;;13.23;4.73;;;8.20;99.90;;;;;;5005032;28;20235;-80
2022/01/10 02:22:39;;;;;;;40.60;6.87;;;8.20;99.90;;;;;;5022159;28;20304;-80
2022/01/10 02:25:25;;;;;;;48.40;6.80;;;8.20;99.90;;;;;;5023963;28;20374;-79
2022/01/10 02:27:55;;;;;;;14.37;4.90;;;8.20;99.90;;;;;;5001421;28;20229;-79
2022/01/10 02:30:22;;;;;;;13.17;4.70;;;8.20;99.90;;;;;;5006901;28;20236;-79
2022/01/10 02:32:48;;;;;;;27.93;6.40;;;8.20;99.90;;;;;;5012115;28;20784;-79
2022/01/10 02:35:22;;;;;;;13.10;4.87;;;8.20;99.90;;;;;;5006948;28;20221;-79
2022/01/10 02:37:50;;;;;;;14.80;5.47;;;8.20;99.90;;;;;;5011184;28;20772;-79
2022/01/10 02:40:20;;;;;;;15.00;5.00;;;8.20;99.90;;;;;;5006455;28;20213;-79
2022/01/10 02:42:46;;;;;;;16.17;5.17;;;8.20;99.90;;;;;;5004266;28;20315;-79
2022/01/10 02:45:14;;;;;;;26.80;9.57;;;8.10;99.90;;;;;;5003131;28;20210;-78
2022/01/10 02:47:41;;;;;;;15.33;5.60;;;8.10;99.90;;;;;;5003066;28;20689;-79
2022/01/10 02:50:08;;;;;;;28.83;8.77;;;8.10;99.90;;;;;;5022595;28;20218;-79
2022/01/10 02:52:37;;;;;;;25.63;8.03;;;8.10;99.90;;;;;;5006837;28;20221;-79
2022/01/10 02:55:05;;;;;;;17.40;6.77;;;8.10;99.90;;;;;;5021645;28;20615;-79
2022/01/10 02:57:33;;;;;;;80.03;29.87;;;8.10;99.90;;;;;;4997557;28;20225;-78
2022/01/10 03:00:02;;;;;;;35.67;15.37;;;8.10;99.90;;;;;;5006677;28;20224;-79
2022/01/10 03:02:34;;;;;;;40.87;15.03;;;8.10;99.90;;;;;;5004896;28;20339;-78
2022/01/10 03:05:02;;;;;;;27.03;13.20;;;8.00;99.90;;;;;;5013396;28;20662;-79
2022/01/10 03:07:29;;;;;;;42.60;14.70;;;7.90;99.90;;;;;;5010416;28;20287;-79
2022/01/10 03:09:59;;;;;;;31.87;13.77;;;7.90;99.90;;;;;;5002801;28;20324;-78
2022/01/10 03:12:28;;;;;;;33.87;12.70;;;7.80;99.90;;;;;;5008756;28;20228;-79
2022/01/10 03:14:55;;;;;;;37.17;14.97;;;7.70;99.90;;;;;;5032605;28;20306;-78
2022/01/10 03:17:22;;;;;;;76.87;21.67;;;7.60;99.90;;;;;;5002984;28;20230;-78
2022/01/10 03:19:49;;;;;;;31.13;11.10;;;7.50;99.90;;;;;;5008600;28;20326;-79
2022/01/10 03:22:15;;;;;;;146.23;47.47;;;7.40;99.90;;;;;;5011131;28;20248;-78
2022/01/10 03:24:42;;;;;;;33.73;12.50;;;7.30;99.90;;;;;;5009995;28;20349;-79
2022/01/10 03:27:11;;;;;;;26.20;9.00;;;7.30;99.90;;;;;;4997314;28;20244;-80
2022/01/10 03:29:38;;;;;;;29.77;9.67;;;7.20;99.90;;;;;;5002618;28;20665;-79
2022/01/10 03:32:07;;;;;;;22.43;8.60;;;7.20;99.90;;;;;;5003038;28;20228;-80
2022/01/10 03:34:35;;;;;;;15.30;7.87;;;7.10;99.90;;;;;;5007117;28;20231;-79
2022/01/10 03:37:03;;;;;;;10.87;7.27;;;7.10;99.90;;;;;;5007302;28;20233;-80
2022/01/10 03:39:30;;;;;;;27.90;13.93;;;7.00;99.90;;;;;;5005635;28;20254;-79
2022/01/10 03:41:57;;;;;;;14.00;8.00;;;6.90;99.90;;;;;;5010875;28;20241;-80
2022/01/10 03:44:25;;;;;;;10.40;6.30;;;6.90;99.90;;;;;;5005783;28;20219;-79
2022/01/10 03:46:53;;;;;;;8.70;6.63;;;6.80;99.90;;;;;;5007080;28;20224;-80
2022/01/10 03:49:20;;;;;;;7.20;5.90;;;6.80;99.90;;;;;;5008234;28;20223;-79
2022/01/10 03:51:47;;;;;;;7.80;6.23;;;6.70;99.90;;;;;;5021163;28;20246;-79
2022/01/10 03:54:14;;;;;;;8.33;6.70;;;6.60;99.90;;;;;;5006958;28;20211;-79
2022/01/10 03:56:40;;;;;;;11.40;7.07;;;6.70;99.90;;;;;;5003902;28;20230;-80
2022/01/10 03:59:09;;;;;;;8.23;6.57;;;6.60;99.90;;;;;;5003122;28;20247;-78
2022/01/10 04:01:39;;;;;;;9.10;7.10;;;6.50;99.90;;;;;;4997455;28;20776;-79
2022/01/10 04:04:06;;;;;;;8.83;7.23;;;6.50;99.90;;;;;;5004925;28;20290;-80
2022/01/10 04:06:33;;;;;;;9.07;7.20;;;6.50;99.90;;;;;;5001395;28;20958;-79
2022/01/10 04:09:00;;;;;;;9.87;7.30;;;6.60;99.90;;;;;;5021971;28;20721;-78
2022/01/10 04:11:28;;;;;;;33.70;9.07;;;6.50;99.90;;;;;;5004666;28;20245;-79
2022/01/10 04:13:54;;;;;;;24.83;8.93;;;6.50;99.90;;;;;;5005296;28;20701;-79
2022/01/10 04:16:21;;;;;;;40.60;8.77;;;6.50;99.90;;;;;;5006248;28;20212;-80
2022/01/10 04:18:50;;;;;;;12.23;7.80;;;6.50;99.90;;;;;;5000399;28;20232;-80
2022/01/10 04:21:17;;;;;;;8.97;7.30;;;6.50;99.90;;;;;;5002382;28;20678;-80
2022/01/10 04:23:44;;;;;;;26.50;9.30;;;6.50;99.90;;;;;;5008393;28;20215;-80
2022/01/10 04:26:12;;;;;;;9.80;8.00;;;6.50;99.90;;;;;;5003386;28;20223;-81
2022/01/10 04:28:38;;;;;;;10.17;8.37;;;6.50;99.90;;;;;;5005039;28;20218;-79
2022/01/10 04:31:06;;;;;;;40.53;9.97;;;6.50;99.90;;;;;;5001877;28;20230;-78
2022/01/10 04:33:34;;;;;;;8.97;7.87;;;6.40;99.90;;;;;;4999391;28;20216;-79
2022/01/10 04:36:02;;;;;;;9.23;8.10;;;6.40;99.90;;;;;;5031201;28;20243;-79
2022/01/10 04:38:30;;;;;;;11.90;8.13;;;6.40;99.90;;;;;;5004390;28;20221;-78
2022/01/10 04:40:57;;;;;;;10.03;8.30;;;6.40;99.90;;;;;;5006207;28;20220;-79
2022/01/10 04:43:24;;;;;;;10.70;8.10;;;6.40;99.90;;;;;;5006520;28;20703;-78
2022/01/10 04:45:51;;;;;;;10.53;8.90;;;6.40;99.90;;;;;;5003861;28;20314;-80
2022/01/10 04:48:18;;;;;;;17.13;8.43;;;6.40;99.90;;;;;;5004201;28;20306;-79
2022/01/10 04:51:11;;;;;;;9.70;8.20;;;6.40;99.90;;;;;;5013448;28;20254;-79
2022/01/10 04:53:40;;;;;;;11.07;8.73;;;6.40;99.90;;;;;;5004349;28;20216;-79
2022/01/10 04:56:07;;;;;;;10.93;8.93;;;6.40;99.90;;;;;;5012222;28;20313;-79
2022/01/10 04:58:35;;;;;;;18.90;9.63;;;6.40;99.90;;;;;;5006833;28;20648;-77
2022/01/10 05:01:03;;;;;;;12.63;8.53;;;6.40;99.90;;;;;;5005421;28;20228;-78
2022/01/10 05:03:31;;;;;;;12.53;9.33;;;6.40;99.90;;;;;;5002757;28;21082;-79
2022/01/10 05:05:59;;;;;;;12.70;8.93;;;6.50;99.90;;;;;;5005546;28;20307;-78
2022/01/10 05:08:26;;;;;;;10.53;8.90;;;6.50;99.90;;;;;;5007529;28;20326;-80
2022/01/10 05:10:57;;;;;;;10.73;8.73;;;6.50;99.90;;;;;;5008808;28;20248;-79
2022/01/10 05:13:24;;;;;;;11.83;8.80;;;6.50;99.90;;;;;;5006606;28;20222;-81
2022/01/10 05:15:53;;;;;;;11.67;9.20;;;6.50;99.90;;;;;;5000827;28;20310;-80
2022/01/10 05:18:22;;;;;;;11.03;9.27;;;6.50;99.90;;;;;;5006126;28;20219;-81
2022/01/10 05:20:50;;;;;;;18.27;9.70;;;6.50;99.90;;;;;;4996766;28;20299;-81
2022/01/10 05:23:16;;;;;;;11.00;9.03;;;6.50;99.90;;;;;;5006083;28;20623;-86
2022/01/10 05:25:43;;;;;;;14.20;9.80;;;6.60;99.90;;;;;;4998008;28;20217;-80
2022/01/10 05:28:17;;;;;;;12.50;9.30;;;6.60;99.90;;;;;;5002189;28;20215;-82
2022/01/10 05:30:44;;;;;;;10.93;9.03;;;6.60;99.90;;;;;;5017274;28;20229;-82
2022/01/10 05:33:14;;;;;;;79.67;12.97;;;6.60;99.90;;;;;;5003613;28;20313;-79
2022/01/10 05:35:46;;;;;;;11.73;9.40;;;6.60;99.90;;;;;;5011914;28;20307;-80
2022/01/10 05:38:14;;;;;;;38.63;11.43;;;6.60;99.90;;;;;;5024612;28;20238;-80
2022/01/10 05:40:42;;;;;;;12.40;10.37;;;6.60;99.90;;;;;;5014204;28;20221;-79
2022/01/10 05:43:10;;;;;;;31.90;10.97;;;6.60;99.90;;;;;;5010585;28;20235;-79
2022/01/10 05:45:39;;;;;;;12.63;9.83;;;6.60;99.90;;;;;;5005016;28;20224;-79
2022/01/10 05:48:12;;;;;;;17.37;9.93;;;6.60;99.90;;;;;;5001495;28;20342;-79
2022/01/10 05:50:42;;;;;;;16.60;10.57;;;6.60;99.90;;;;;;5001115;28;20220;-79
2022/01/10 05:53:11;;;;;;;12.13;9.40;;;6.60;99.90;;;;;;5004805;28;20251;-78
2022/01/10 05:55:38;;;;;;;16.83;12.07;;;6.60;99.90;;;;;;5011819;28;20227;-78
2022/01/10 05:58:07;;;;;;;15.10;10.67;;;6.70;99.90;;;;;;5003864;28;20283;-80
2022/01/10 06:00:36;;;;;;;15.33;10.90;;;6.70;99.90;;;;;;5000458;28;20232;-79
2022/01/10 06:03:04;;;;;;;15.83;11.17;;;6.70;99.90;;;;;;5012714;28;20223;-80
2022/01/10 06:05:37;;;;;;;14.50;11.10;;;6.70;99.90;;;;;;4994135;28;20232;-85
2022/01/10 06:08:08;;;;;;;13.73;10.87;;;6.60;99.90;;;;;;5002004;28;20269;-77
2022/01/10 06:10:38;;;;;;;13.67;10.13;;;6.70;99.90;;;;;;4997788;28;20223;-77
2022/01/10 06:13:26;;;;;;;14.50;10.60;;;6.60;99.90;;;;;;4999306;28;20223;-78
2022/01/10 06:15:53;;;;;;;13.70;10.33;;;6.60;99.90;;;;;;5006225;28;20234;-78
2022/01/10 06:18:21;;;;;;;14.70;11.40;;;6.60;99.90;;;;;;5003356;28;20212;-78
2022/01/10 06:20:48;;;;;;;14.37;10.70;;;6.60;99.90;;;;;;5006916;28;20310;-79
2022/01/10 06:23:15;;;;;;;55.00;13.07;;;6.60;99.90;;;;;;5006382;28;20220;-78
2022/01/10 06:25:42;;;;;;;15.03;10.30;;;6.60;99.90;;;;;;5005601;28;20306;-79
2022/01/10 06:28:10;;;;;;;16.03;11.07;;;6.60;99.90;;;;;;5008575;28;20223;-78
2022/01/10 06:30:38;;;;;;;15.50;11.53;;;6.60;99.90;;;;;;4998591;28;20228;-79
2022/01/10 06:33:05;;;;;;;15.10;11.27;;;6.60;99.90;;;;;;5007190;28;20366;-77
2022/01/10 06:35:34;;;;;;;19.50;11.77;;;6.60;99.90;;;;;;5011849;28;20216;-78
2022/01/10 06:38:02;;;;;;;16.63;11.00;;;6.60;99.90;;;;;;5006123;28;20259;-78
2022/01/10 06:40:29;;;;;;;17.27;11.53;;;6.60;99.90;;;;;;5012836;28;20307;-79
2022/01/10 06:42:55;;;;;;;21.63;12.23;;;6.60;99.90;;;;;;5023188;28;20223;-78
2022/01/10 06:45:24;;;;;;;15.57;12.20;;;6.60;99.90;;;;;;5009960;28;20226;-78
2022/01/10 06:47:51;;;;;;;16.63;12.00;;;6.60;99.90;;;;;;5014012;28;20270;-78
2022/01/10 06:50:19;;;;;;;17.80;12.73;;;6.60;99.90;;;;;;5013013;28;20283;-78
2022/01/10 06:52:50;;;;;;;34.40;13.67;;;6.60;99.90;;;;;;5009828;28;20221;-78
2022/01/10 06:55:17;;;;;;;18.90;12.27;;;6.50;99.90;;;;;;5010474;28;20928;-78
2022/01/10 06:57:45;;;;;;;18.17;12.50;;;6.50;99.90;;;;;;5011439;28;20216;-79
2022/01/10 07:00:14;;;;;;;19.87;11.67;;;6.50;99.90;;;;;;5013864;28;20893;-78
2022/01/10 07:02:49;;;;;;;16.73;12.53;;;6.50;99.90;;;;;;5010050;28;20251;-78
2022/01/10 07:05:16;;;;;;;17.10;12.43;;;6.50;99.90;;;;;;5015724;28;20321;-78
2022/01/10 07:07:45;;;;;;;17.90;12.97;;;6.50;99.90;;;;;;5010598;28;20316;-79
2022/01/10 07:10:24;;;;;;;27.50;13.50;;;6.50;99.90;;;;;;5014370;28;20220;-78
2022/01/10 07:12:52;;;;;;;18.30;13.33;;;6.50;99.90;;;;;;5003122;28;20304;-78
2022/01/10 07:15:21;;;;;;;34.67;13.13;;;6.50;99.90;;;;;;5018943;28;20362;-78
2022/01/10 07:17:50;;;;;;;18.73;13.57;;;6.50;99.90;;;;;;5024589;28;20222;-78
2022/01/10 07:20:17;;;;;;;19.13;13.47;;;6.40;99.90;;;;;;5012931;28;20833;-78
2022/01/10 07:22:45;;;;;;;20.90;13.60;;;6.50;99.90;;;;;;5023654;28;20228;-79
2022/01/10 07:25:12;;;;;;;18.60;13.27;;;6.50;99.90;;;;;;5013810;28;20228;-78
2022/01/10 07:27:41;;;;;;;17.97;13.17;;;6.50;99.90;;;;;;5028867;28;20228;-78
2022/01/10 07:30:08;;;;;;;23.47;14.40;;;6.50;99.90;;;;;;5026728;28;20252;-78
2022/01/10 07:32:35;;;;;;;17.53;13.37;;;6.50;99.90;;;;;;5008609;28;20297;-78
2022/01/10 07:35:02;;;;;;;20.53;14.40;;;6.50;99.90;;;;;;5026322;28;20750;-78
2022/01/10 07:37:28;;;;;;;24.73;14.37;;;6.50;99.90;;;;;;5015471;28;20229;-78
2022/01/10 07:39:55;;;;;;;20.40;15.00;;;6.50;99.90;;;;;;5027823;28;20221;-78
2022/01/10 07:42:22;;;;;;;22.40;14.43;;;6.50;99.90;;;;;;5032925;28;20219;-78
2022/01/10 07:45:04;;;;;;;22.50;15.07;;;6.50;99.90;;;;;;5011068;28;20397;-78
2022/01/10 07:47:31;;;;;;;21.40;14.40;;;6.50;99.90;;;;;;5023814;28;20236;-78
2022/01/10 07:49:58;;;;;;;21.47;14.37;;;6.50;99.90;;;;;;5022957;28;20227;-78
2022/01/10 07:52:26;;;;;;;22.63;15.03;;;6.50;99.90;;;;;;5013206;28;20220;-78
2022/01/10 07:54:53;;;;;;;20.87;14.77;;;6.60;99.90;;;;;;5030448;28;20588;-79
2022/01/10 07:57:20;;;;;;;20.50;14.73;;;6.60;99.90;;;;;;5014936;28;20747;-78
2022/01/10 07:59:47;;;;;;;19.33;13.30;;;6.60;99.90;;;;;;5005889;28;20223;-78
2022/01/10 08:02:16;;;;;;;20.87;14.67;;;6.60;99.90;;;;;;5005824;28;20234;-78
2022/01/10 08:04:43;;;;;;;21.57;14.90;;;6.60;99.90;;;;;;5004799;28;20697;-79
2022/01/10 08:07:11;;;;;;;22.00;15.50;;;6.60;99.90;;;;;;5030591;28;20331;-78
2022/01/10 08:09:37;;;;;;;21.43;15.07;;;6.70;99.90;;;;;;5026347;28;20232;-79
2022/01/10 08:12:05;;;;;;;19.27;14.43;;;6.70;99.90;;;;;;5027477;28;20226;-78
2022/01/10 08:14:33;;;;;;;21.10;14.73;;;6.70;99.90;;;;;;5013241;28;20431;-77
2022/01/10 08:17:00;;;;;;;23.27;15.40;;;6.70;99.90;;;;;;5031869;28;20755;-78
2022/01/10 08:19:30;;;;;;;20.47;14.73;;;6.80;99.90;;;;;;5023182;28;20232;-77
2022/01/10 08:21:57;;;;;;;21.90;15.50;;;6.70;99.90;;;;;;5001191;28;20228;-77
2022/01/10 08:24:24;;;;;;;23.13;14.93;;;6.70;99.90;;;;;;5025192;28;20243;-77
2022/01/10 08:26:51;;;;;;;22.53;15.10;;;6.70;99.90;;;;;;5026040;28;20244;-78
2022/01/10 08:29:17;;;;;;;21.60;15.67;;;6.70;99.90;;;;;;5004030;28;20235;-78
2022/01/10 08:31:45;;;;;;;21.63;15.17;;;6.70;99.90;;;;;;5008315;28;20235;-78
2022/01/10 08:34:11;;;;;;;25.33;15.13;;;6.70;99.90;;;;;;5007639;28;20229;-79
2022/01/10 08:36:40;;;;;;;20.97;14.60;;;6.70;99.90;;;;;;5022886;28;20328;-77
2022/01/10 08:39:07;;;;;;;22.03;15.50;;;6.70;99.90;;;;;;5009064;28;20223;-78
2022/01/10 08:41:35;;;;;;;20.60;14.83;;;6.70;99.90;;;;;;5001926;28;20232;-79
2022/01/10 08:44:02;;;;;;;26.87;16.37;;;6.80;99.90;;;;;;5005432;28;20231;-78
2022/01/10 08:46:29;;;;;;;27.40;16.43;;;6.80;99.90;;;;;;5008295;28;20228;-79
2022/01/10 08:48:56;;;;;;;23.93;17.17;;;6.80;99.90;;;;;;5004684;28;20227;-78
2022/01/10 08:51:23;;;;;;;24.47;16.70;;;6.80;99.90;;;;;;5022600;28;20220;-78
2022/01/10 08:53:52;;;;;;;26.80;16.70;;;6.80;99.90;;;;;;5005459;28;20228;-78
2022/01/10 08:56:18;;;;;;;26.90;15.80;;;6.80;99.90;;;;;;5022108;28;20881;-79
2022/01/10 08:58:45;;;;;;;28.77;17.40;;;6.80;99.90;;;;;;5003932;28;20222;-79
2022/01/10 09:01:12;;;;;;;24.40;17.03;;;6.80;99.90;;;;;;5010327;28;20243;-78
2022/01/10 09:03:39;;;;;;;28.83;18.83;;;6.80;99.90;;;;;;5001973;28;20218;-79
2022/01/10 09:06:06;;;;;;;24.97;17.00;;;6.80;99.90;;;;;;5006088;28;20736;-78
2022/01/10 09:08:37;;;;;;;26.60;17.50;;;6.90;99.90;;;;;;5028948;28;20841;-78
2022/01/10 09:11:06;;;;;;;29.23;18.20;;;6.80;99.90;;;;;;5006947;28;20219;-78
2022/01/10 09:13:33;;;;;;;31.53;18.47;;;6.90;99.90;;;;;;5004621;28;20794;-78
2022/01/10 09:16:02;;;;;;;28.77;18.07;;;6.90;99.90;;;;;;5007494;28;20216;-79
2022/01/10 09:18:28;;;;;;;28.60;18.60;;;7.00;99.90;;;;;;5020714;28;20233;-78
2022/01/10 09:20:55;;;;;;;30.83;19.57;;;7.00;99.90;;;;;;5025881;28;20226;-79
2022/01/10 09:23:22;;;;;;;32.53;19.00;;;7.00;99.90;;;;;;5020558;28;20218;-78
2022/01/10 09:25:50;;;;;;;32.97;19.70;;;7.10;99.90;;;;;;5022706;28;20220;-79
2022/01/10 09:28:18;;;;;;;31.70;20.50;;;7.10;99.90;;;;;;5007395;28;20221;-78
2022/01/10 09:30:44;;;;;;;35.43;20.00;;;7.10;99.90;;;;;;5017451;28;20232;-79
2022/01/10 09:33:11;;;;;;;36.57;20.80;;;7.20;99.90;;;;;;5001843;28;20727;-78
2022/01/10 09:35:39;;;;;;;36.93;21.40;;;7.20;99.90;;;;;;5024301;28;20221;-79
2022/01/10 09:38:07;;;;;;;34.40;21.47;;;7.30;99.90;;;;;;5002246;28;20234;-79
2022/01/10 09:40:34;;;;;;;40.87;22.70;;;7.30;99.90;;;;;;5003690;28;20213;-80
2022/01/10 09:43:01;;;;;;;42.37;23.43;;;7.40;99.90;;;;;;5018343;28;20229;-78
2022/01/10 09:45:30;;;;;;;38.83;23.20;;;7.50;99.90;;;;;;5006666;28;20267;-79
2022/01/10 09:47:57;;;;;;;34.93;21.67;;;7.50;99.90;;;;;;5018927;28;20263;-79
2022/01/10 09:50:24;;;;;;;37.53;23.00;;;7.60;99.90;;;;;;5007198;28;20223;-79
2022/01/10 09:52:51;;;;;;;34.63;23.13;;;7.70;99.90;;;;;;5000203;28;20217;-78
2022/01/10 09:55:19;;;;;;;34.93;22.87;;;7.80;99.90;;;;;;5022476;28;20694;-79
2022/01/10 09:57:46;;;;;;;37.60;23.27;;;7.90;99.90;;;;;;5023402;28;20221;-79
2022/01/10 10:00:15;;;;;;;35.07;21.87;;;7.90;99.90;;;;;;5008150;28;20229;-79
2022/01/10 10:02:43;;;;;;;36.60;22.93;;;8.00;99.90;;;;;;5030962;28;20262;-79
2022/01/10 10:05:12;;;;;;;37.43;23.03;;;8.00;99.90;;;;;;5008661;28;20268;-79
2022/01/10 10:07:41;;;;;;;37.47;23.53;;;8.10;99.90;;;;;;5008997;28;20228;-79
2022/01/10 10:10:11;;;;;;;37.20;24.33;;;8.00;99.90;;;;;;5006837;28;20601;-79
2022/01/10 10:12:39;;;;;;;36.53;23.87;;;8.10;99.90;;;;;;5030576;28;21118;-79
2022/01/10 10:15:07;;;;;;;38.93;23.87;;;8.10;99.90;;;;;;5008910;28;21019;-79
2022/01/10 10:17:35;;;;;;;35.47;23.70;;;8.10;99.90;;;;;;5005795;28;20217;-78
2022/01/10 10:20:07;;;;;;;41.33;24.93;;;8.10;99.90;;;;;;5035438;28;20856;-79
2022/01/10 10:22:34;;;;;;;38.47;24.73;;;8.20;99.90;;;;;;5013774;28;20229;-78
2022/01/10 10:25:00;;;;;;;38.57;23.57;;;8.20;99.90;;;;;;5013534;28;20232;-79
2022/01/10 10:27:27;;;;;;;36.77;22.97;;;8.30;99.90;;;;;;5029134;28;20205;-78
2022/01/10 10:29:54;;;;;;;38.67;24.43;;;8.30;99.90;;;;;;5010488;28;20961;-78
2022/01/10 10:32:29;;;;;;;33.07;22.53;;;8.30;99.90;;;;;;5033943;28;20224;-79
2022/01/10 10:34:57;;;;;;;36.40;23.63;;;8.30;99.90;;;;;;5016014;28;20216;-79
2022/01/10 10:37:29;;;;;;;37.13;23.50;;;8.30;99.90;;;;;;5016623;28;20262;-78
2022/01/10 10:39:58;;;;;;;35.80;23.43;;;8.30;99.90;;;;;;5010274;28;20230;-79
2022/01/10 10:42:28;;;;;;;36.80;23.60;;;8.30;99.90;;;;;;5015875;28;20229;-78
2022/01/10 10:44:56;;;;;;;37.27;24.00;;;8.30;99.90;;;;;;5026692;28;20217;-79
2022/01/10 10:47:27;;;;;;;37.23;22.43;;;8.30;99.90;;;;;;5025908;28;20219;-79
2022/01/10 10:49:58;;;;;;;36.50;24.20;;;8.30;99.90;;;;;;5027211;28;20538;-79
2022/01/10 10:52:32;;;;;;;36.37;23.47;;;8.30;99.90;;;;;;5028881;28;20790;-79
2022/01/10 10:55:03;;;;;;;39.27;24.50;;;8.20;99.90;;;;;;5000283;28;20721;-79
2022/01/10 10:57:30;;;;;;;38.97;25.13;;;8.20;99.90;;;;;;5027202;28;20213;-78
2022/01/10 10:59:58;;;;;;;37.40;23.97;;;8.20;99.90;;;;;;5010689;28;20217;-79
2022/01/10 11:02:25;;;;;;;36.33;22.80;;;8.20;99.90;;;;;;5025747;28;20275;-79
2022/01/10 11:04:52;;;;;;;35.10;22.67;;;8.20;99.90;;;;;;5008232;28;20235;-79
2022/01/10 11:07:22;;;;;;;34.87;22.63;;;8.30;99.90;;;;;;5011583;28;20220;-78
2022/01/10 11:09:51;;;;;;;35.23;23.20;;;8.40;99.90;;;;;;5005853;28;20604;-78
2022/01/10 11:12:22;;;;;;;38.60;23.70;;;8.40;99.90;;;;;;5022561;28;20707;-78
2022/01/10 11:14:51;;;;;;;33.70;21.83;;;8.50;99.90;;;;;;5022777;28;20233;-78
2022/01/10 11:17:20;;;;;;;32.63;21.77;;;8.50;99.90;;;;;;5011339;28;20231;-78
2022/01/10 11:20:09;;;;;;;32.10;21.77;;;8.60;99.90;;;;;;5025929;28;20232;-78
2022/01/10 11:22:37;;;;;;;37.40;23.67;;;8.60;99.90;;;;;;5012329;28;20232;-78
2022/01/10 11:25:18;;;;;;;36.87;23.93;;;8.60;99.90;;;;;;5026020;28;20297;-78
2022/01/10 11:27:45;;;;;;;36.00;24.67;;;8.60;99.90;;;;;;5028107;28;20311;-79
2022/01/10 11:30:28;;;;;;;41.10;25.33;;;8.60;99.90;;;;;;5030498;28;20209;-78
2022/01/10 11:32:57;;;;;;;37.13;23.93;;;8.60;99.90;;;;;;5024874;28;20218;-79
2022/01/10 11:35:27;;;;;;;40.43;24.60;;;8.60;99.90;;;;;;5024733;28;20217;-78
2022/01/10 11:37:54;;;;;;;40.23;26.33;;;8.60;99.90;;;;;;5008509;28;20729;-78
2022/01/10 11:40:23;;;;;;;32.40;22.40;;;8.60;99.90;;;;;;5003138;28;20642;-79
2022/01/10 11:42:54;;;;;;;31.60;20.87;;;8.60;99.90;;;;;;5023135;28;20689;-79
2022/01/10 11:45:21;;;;;;;31.70;21.07;;;8.50;99.90;;;;;;5031877;28;20281;-79
2022/01/10 11:48:16;;;;;;;30.93;20.70;;;8.50;99.90;;;;;;5011189;28;20230;-79
2022/01/10 11:50:46;;;;;;;33.30;21.20;;;8.50;99.90;;;;;;5007415;28;20240;-79
2022/01/10 11:53:17;;;;;;;30.90;19.80;;;8.50;99.90;;;;;;5027433;28;20286;-78
2022/01/10 11:55:53;;;;;;;27.93;19.17;;;8.50;99.90;;;;;;5015743;28;20242;-79
2022/01/10 11:58:23;;;;;;;26.87;17.90;;;8.50;99.90;;;;;;5010076;28;20226;-79
2022/01/10 12:00:53;;;;;;;26.47;17.87;;;8.50;99.90;;;;;;5026880;28;20583;-78
2022/01/10 12:03:21;;;;;;;27.87;18.20;;;8.50;99.90;;;;;;5010101;28;20267;-77
2022/01/10 12:05:48;;;;;;;30.70;18.60;;;8.50;99.90;;;;;;5031205;28;20697;-78
2022/01/10 12:08:15;;;;;;;27.73;18.40;;;8.50;99.90;;;;;;5029576;28;20225;-79
2022/01/10 12:10:42;;;;;;;29.90;19.90;;;8.50;99.90;;;;;;5015540;28;20246;-79
2022/01/10 12:13:10;;;;;;;28.50;19.83;;;8.50;99.90;;;;;;5026338;28;20250;-78
2022/01/10 12:15:38;;;;;;;30.73;19.93;;;8.50;99.90;;;;;;5023661;28;20309;-78
2022/01/10 12:18:06;;;;;;;30.37;21.30;;;8.60;99.90;;;;;;5022635;28;20216;-78
2022/01/10 12:20:33;;;;;;;37.37;22.43;;;8.50;99.90;;;;;;5030426;28;20300;-78
2022/01/10 12:23:00;;;;;;;33.60;22.30;;;8.60;99.90;;;;;;5025430;28;20752;-78
2022/01/10 12:25:28;;;;;;;35.90;21.93;;;8.60;99.90;;;;;;5027014;28;20237;-78
2022/01/10 12:27:57;;;;;;;31.50;21.50;;;8.60;99.90;;;;;;5032482;28;20240;-78
2022/01/10 12:30:26;;;;;;;34.93;22.90;;;8.60;99.90;;;;;;5025043;28;20219;-78
2022/01/10 12:32:53;;;;;;;37.10;23.83;;;8.60;99.90;;;;;;5028776;28;20264;-78
2022/01/10 12:35:20;;;;;;;34.67;22.47;;;8.50;99.90;;;;;;5011149;28;20237;-79
2022/01/10 12:37:47;;;;;;;41.83;24.23;;;8.50;99.90;;;;;;5020182;28;20228;-78
2022/01/10 12:40:15;;;;;;;35.07;22.43;;;8.50;99.90;;;;;;5005307;28;20216;-78
2022/01/10 12:42:47;;;;;;;35.73;23.07;;;8.40;99.90;;;;;;5006725;28;20886;-79
2022/01/10 12:45:14;;;;;;;38.03;22.90;;;8.30;99.90;;;;;;5004342;28;20709;-78
2022/01/10 12:47:46;;;;;;;38.47;23.90;;;8.30;99.90;;;;;;5022416;28;20235;-78
2022/01/10 12:50:13;;;;;;;40.00;23.33;;;8.30;99.90;;;;;;5006688;28;20220;-78